createdAt,value
2023-01-26T00:01:25.464Z,41.00
2023-01-26T00:03:52.352Z,43.42
2023-01-26T00:06:21.240Z,41.63
2023-01-26T00:08:50.318Z,36.25
2023-01-26T00:11:24.443Z,35.83
2023-01-26T00:13:51.667Z,35.15
2023-01-26T00:16:19.167Z,37.40
2023-01-26T00:18:46.124Z,43.45
2023-01-26T00:21:16.008Z,38.08
2023-01-26T00:23:43.307Z,38.08
2023-01-26T00:26:13.240Z,34.42
2023-01-26T00:28:40.455Z,43.55
2023-01-26T00:31:12.971Z,42.22
2023-01-26T00:33:40.138Z,36.97
2023-01-26T00:36:10.862Z,40.10
2023-01-26T00:38:38.516Z,38.17
2023-01-26T00:41:05.739Z,36.35
2023-01-26T00:43:33.855Z,41.72
2023-01-26T00:46:00.803Z,38.25
2023-01-26T00:48:27.638Z,38.33
2023-01-26T00:50:54.539Z,34.78
2023-01-26T00:53:21.343Z,34.45
2023-01-26T00:55:48.153Z,36.50
2023-01-26T00:58:14.982Z,35.25
2023-01-26T01:00:41.903Z,34.17
2023-01-26T01:03:08.924Z,35.72
2023-01-26T01:05:35.761Z,33.53
2023-01-26T01:08:02.891Z,32.72
2023-01-26T01:10:29.884Z,34.33
2023-01-26T01:12:56.797Z,31.60
2023-01-26T01:15:24.645Z,33.45
2023-01-26T01:17:51.613Z,29.98
2023-01-26T01:20:18.753Z,37.00
2023-01-26T01:22:46.944Z,33.75
2023-01-26T01:25:14.275Z,33.13
2023-01-26T01:27:41.208Z,30.65
2023-01-26T01:30:09.460Z,34.72
2023-01-26T01:32:39.671Z,35.47
2023-01-26T01:35:07.777Z,32.65
2023-01-26T01:37:36.859Z,32.05
2023-01-26T01:40:04.320Z,30.77
2023-01-26T01:42:33.065Z,31.25
2023-01-26T01:45:38.913Z,38.70
2023-01-26T01:48:10.549Z,34.10
2023-01-26T01:50:40.093Z,37.37
2023-01-26T01:53:11.974Z,33.60
2023-01-26T01:55:41.291Z,38.30
2023-01-26T01:58:09.036Z,36.78
2023-01-26T02:00:35.941Z,37.75
2023-01-26T02:03:11.304Z,37.47
2023-01-26T02:05:42.669Z,37.38
2023-01-26T02:08:11.397Z,37.55
2023-01-26T02:10:38.382Z,38.05
2023-01-26T02:13:06.743Z,36.58
2023-01-26T02:15:34.400Z,36.85
2023-01-26T02:18:04.588Z,34.40
2023-01-26T02:20:43.824Z,32.80
2023-01-26T02:23:17.859Z,38.05
2023-01-26T02:25:49.788Z,35.38
2023-01-26T02:28:18.062Z,35.97
2023-01-26T02:30:45.747Z,31.33
2023-01-26T02:33:19.059Z,33.65
2023-01-26T02:35:45.942Z,32.08
2023-01-26T02:38:13.196Z,36.90
2023-01-26T02:40:53.558Z,32.83
2023-01-26T02:43:21.303Z,31.10
2023-01-26T02:45:48.138Z,33.72
2023-01-26T02:48:35.099Z,33.45
2023-01-26T02:51:04.491Z,30.13
2023-01-26T02:53:31.923Z,32.70
2023-01-26T02:55:59.125Z,31.95
2023-01-26T02:58:25.946Z,31.83
2023-01-26T03:00:53.248Z,32.40
2023-01-26T03:03:24.561Z,27.40
2023-01-26T03:05:52.294Z,27.40
2023-01-26T03:08:19.174Z,30.25
2023-01-26T03:10:47.583Z,29.67
2023-01-26T03:13:14.850Z,32.38
2023-01-26T03:15:48.066Z,35.97
2023-01-26T03:18:46.228Z,42.95
2023-01-26T03:21:35.393Z,37.90
2023-01-26T03:24:22.096Z,35.85
2023-01-26T03:27:10.897Z,33.47
2023-01-26T03:29:37.720Z,36.75
2023-01-26T03:32:05.576Z,34.53
2023-01-26T03:34:33.355Z,33.97
2023-01-26T03:37:00.940Z,36.75
2023-01-26T03:39:53.832Z,38.53
2023-01-26T03:42:39.317Z,37.38
2023-01-26T03:45:26.099Z,35.17
2023-01-26T03:48:11.809Z,34.55
2023-01-26T03:50:57.203Z,34.47
2023-01-26T03:53:43.407Z,36.10
2023-01-26T03:56:27.286Z,34.88
2023-01-26T03:59:08.104Z,31.98
2023-01-26T04:01:41.173Z,36.55
2023-01-26T04:04:27.536Z,32.30
2023-01-26T04:07:14.781Z,33.22
2023-01-26T04:09:46.333Z,33.65
2023-01-26T04:12:14.146Z,35.25
2023-01-26T04:15:17.031Z,33.58
2023-01-26T04:18:02.381Z,32.92
2023-01-26T04:20:48.423Z,29.85
2023-01-26T04:23:21.453Z,30.58
2023-01-26T04:25:50.435Z,32.72
2023-01-26T04:28:18.160Z,31.80
2023-01-26T04:30:46.503Z,29.15
2023-01-26T04:33:13.898Z,31.52
2023-01-26T04:35:41.023Z,29.70
2023-01-26T04:38:08.402Z,29.83
2023-01-26T04:40:35.317Z,30.95
2023-01-26T04:43:02.851Z,29.27
2023-01-26T04:45:29.706Z,26.65
2023-01-26T04:47:56.839Z,25.63
2023-01-26T04:50:23.662Z,24.73
2023-01-26T04:52:50.920Z,23.95
2023-01-26T04:55:17.781Z,21.25
2023-01-26T04:57:44.665Z,23.13
2023-01-26T05:00:12.487Z,23.67
2023-01-26T05:02:40.592Z,21.60
2023-01-26T05:05:09.140Z,23.80
2023-01-26T05:07:36.432Z,21.98
2023-01-26T05:10:04.121Z,23.73
2023-01-26T05:12:52.706Z,19.55
2023-01-26T05:15:22.177Z,21.00
2023-01-26T05:18:03.773Z,20.02
2023-01-26T05:20:49.971Z,17.08
2023-01-26T05:23:20.414Z,19.98
2023-01-26T05:26:02.753Z,19.80
2023-01-26T05:28:33.860Z,20.17
2023-01-26T05:31:00.801Z,19.90
2023-01-26T05:33:28.105Z,19.48
2023-01-26T05:35:55.379Z,17.65
2023-01-26T05:38:22.421Z,19.60
2023-01-26T05:40:49.512Z,19.27
2023-01-26T05:43:17.144Z,17.33
2023-01-26T05:45:46.992Z,20.88
2023-01-26T05:48:15.265Z,18.33
2023-01-26T05:50:42.273Z,18.60
2023-01-26T05:53:20.379Z,19.45
2023-01-26T05:55:48.734Z,19.52
2023-01-26T05:58:18.365Z,19.33
2023-01-26T06:00:45.192Z,22.45
2023-01-26T06:03:19.327Z,21.33
2023-01-26T06:05:53.847Z,37.50
2023-01-26T06:08:34.028Z,21.38
2023-01-26T06:11:26.509Z,20.02
2023-01-26T06:14:16.283Z,17.17
2023-01-26T06:16:43.684Z,17.13
2023-01-26T06:19:11.818Z,19.67
2023-01-26T06:21:39.988Z,15.75
2023-01-26T06:24:07.334Z,15.50
2023-01-26T06:26:34.329Z,16.48
2023-01-26T06:29:01.184Z,15.45
2023-01-26T06:31:31.667Z,18.33
2023-01-26T06:34:01.271Z,18.52
2023-01-26T06:36:28.385Z,19.60
2023-01-26T06:38:57.155Z,21.70
2023-01-26T06:41:24.643Z,25.13
2023-01-26T06:43:51.527Z,24.20
2023-01-26T06:46:19.636Z,20.85
2023-01-26T06:48:47.253Z,23.92
2023-01-26T06:51:19.990Z,24.00
2023-01-26T06:53:54.800Z,22.48
2023-01-26T06:56:29.043Z,24.92
2023-01-26T07:01:49.070Z,17.70
2023-01-26T07:04:16.957Z,18.80
2023-01-26T07:06:43.860Z,20.35
2023-01-26T07:09:11.185Z,24.35
2023-01-26T07:11:38.164Z,26.92
2023-01-26T07:14:05.458Z,23.60
2023-01-26T07:16:35.840Z,23.48
2023-01-26T07:19:05.947Z,21.85
2023-01-26T07:21:35.528Z,24.02
2023-01-26T07:24:02.410Z,23.25
2023-01-26T07:26:29.231Z,26.17
2023-01-26T07:28:56.408Z,22.65
2023-01-26T07:31:23.425Z,23.70
2023-01-26T07:33:50.320Z,23.23
2023-01-26T07:36:17.194Z,20.38
2023-01-26T07:38:44.098Z,23.88
2023-01-26T07:41:13.016Z,22.27
2023-01-26T07:43:40.380Z,21.88
2023-01-26T07:46:10.836Z,24.17
2023-01-26T07:48:37.811Z,21.08
2023-01-26T07:51:07.149Z,23.90
2023-01-26T07:53:39.402Z,21.85
2023-01-26T07:56:14.406Z,20.45
2023-01-26T07:58:41.606Z,22.08
2023-01-26T08:01:11.169Z,20.25
2023-01-26T08:03:38.594Z,22.42
2023-01-26T08:06:06.898Z,16.85
2023-01-26T08:08:34.716Z,20.92
2023-01-26T08:11:02.589Z,20.92
2023-01-26T08:13:35.673Z,19.90
2023-01-26T08:16:12.447Z,20.80
2023-01-26T08:18:44.609Z,18.85
2023-01-26T08:21:13.681Z,16.40
2023-01-26T08:23:40.904Z,18.73
2023-01-26T08:26:10.747Z,20.02
2023-01-26T08:28:37.909Z,19.05
2023-01-26T08:31:13.668Z,19.48
2023-01-26T08:33:43.831Z,19.35
2023-01-26T08:36:13.428Z,18.00
2023-01-26T08:38:40.851Z,21.00
2023-01-26T08:41:08.984Z,20.05
2023-01-26T08:43:36.046Z,19.55
2023-01-26T08:46:03.515Z,21.38
2023-01-26T08:48:31.621Z,19.90
2023-01-26T08:51:00.663Z,19.55
2023-01-26T08:53:29.791Z,22.45
2023-01-26T08:55:56.731Z,18.65
2023-01-26T08:58:23.608Z,22.63
2023-01-26T09:00:50.773Z,17.92
2023-01-26T09:03:17.799Z,18.27
2023-01-26T09:05:44.721Z,17.38
2023-01-26T09:08:12.256Z,17.92
2023-01-26T09:10:39.495Z,18.02
2023-01-26T09:13:06.513Z,19.33
2023-01-26T09:15:33.396Z,18.80
2023-01-26T09:18:01.125Z,20.40
2023-01-26T09:20:28.788Z,18.67
2023-01-26T09:22:55.692Z,21.55
2023-01-26T09:25:22.531Z,17.30
2023-01-26T09:27:49.391Z,14.88
2023-01-26T09:30:16.759Z,15.32
2023-01-26T09:32:43.987Z,18.80
2023-01-26T09:35:14.819Z,15.57
2023-01-26T09:37:44.219Z,16.90
2023-01-26T09:40:44.950Z,16.20
2023-01-26T09:43:21.038Z,15.95
2023-01-26T09:46:05.984Z,14.25
2023-01-26T09:48:42.083Z,14.38
2023-01-26T09:51:33.590Z,16.08
2023-01-26T09:54:09.359Z,14.93
2023-01-26T09:56:36.241Z,15.85
2023-01-26T09:59:24.382Z,15.40
2023-01-26T10:02:03.691Z,18.13
2023-01-26T10:04:39.448Z,17.33
2023-01-26T10:07:11.538Z,15.07
2023-01-26T10:09:50.907Z,13.27
2023-01-26T10:15:16.284Z,15.23
2023-01-26T10:17:45.825Z,13.75
2023-01-26T10:20:21.746Z,15.35
2023-01-26T10:22:58.420Z,13.35
2023-01-26T10:25:35.641Z,14.48
2023-01-26T10:28:22.132Z,14.70
2023-01-26T10:30:51.331Z,14.23
2023-01-26T10:33:30.414Z,14.40
2023-01-26T10:35:57.586Z,14.18
2023-01-26T10:38:44.403Z,14.30
2023-01-26T10:41:14.283Z,14.35
2023-01-26T10:43:42.551Z,15.88
2023-01-26T10:46:44.618Z,16.15
2023-01-26T10:49:14.700Z,15.52
2023-01-26T10:52:03.010Z,13.45
2023-01-26T10:54:30.049Z,14.73
2023-01-26T10:57:00.265Z,15.20
2023-01-26T10:59:32.872Z,13.57
2023-01-26T11:02:11.858Z,12.95
2023-01-26T11:04:39.935Z,14.68
2023-01-26T11:07:28.470Z,13.32
2023-01-26T11:09:55.694Z,16.05
2023-01-26T11:12:25.628Z,15.00
2023-01-26T11:15:06.524Z,14.40
2023-01-26T11:17:41.611Z,15.48
2023-01-26T11:20:11.451Z,16.80
2023-01-26T11:23:19.403Z,16.40
2023-01-26T11:26:01.217Z,14.98
2023-01-26T11:29:02.334Z,17.25
2023-01-26T11:31:50.243Z,15.85
2023-01-26T11:34:41.796Z,14.02
2023-01-26T11:37:46.670Z,15.80
2023-01-26T11:40:45.539Z,19.10
2023-01-26T11:43:40.303Z,17.15
2023-01-26T11:46:38.973Z,17.73
2023-01-26T11:49:06.271Z,16.15
2023-01-26T11:51:51.777Z,18.92
2023-01-26T11:54:21.664Z,21.23
2023-01-26T11:57:27.893Z,19.00
2023-01-26T12:00:00.307Z,17.55
2023-01-26T12:02:36.707Z,19.60
2023-01-26T12:05:32.178Z,20.88
2023-01-26T12:08:29.654Z,18.63
2023-01-26T12:11:23.057Z,23.52
2023-01-26T12:14:02.641Z,22.75
2023-01-26T12:17:17.657Z,19.98
2023-01-26T12:19:47.917Z,23.65
2023-01-26T12:22:52.501Z,19.50
2023-01-26T12:25:41.122Z,18.73
2023-01-26T12:28:26.514Z,19.60
2023-01-26T12:31:22.214Z,20.70
2023-01-26T12:33:53.723Z,20.15
2023-01-26T12:36:51.555Z,22.38
2023-01-26T12:39:33.599Z,20.48
2023-01-26T12:42:11.688Z,25.53
2023-01-26T12:44:46.210Z,26.10
2023-01-26T12:47:38.516Z,22.50
2023-01-26T12:50:24.232Z,26.40
2023-01-26T12:53:14.588Z,22.13
2023-01-26T12:56:00.213Z,22.83
2023-01-26T12:58:41.879Z,24.55
2023-01-26T13:03:47.483Z,24.52
2023-01-26T13:06:14.295Z,24.30
2023-01-26T13:08:48.970Z,24.95
2023-01-26T13:11:46.236Z,24.38
2023-01-26T13:14:27.182Z,23.73
2023-01-26T13:16:54.602Z,23.73
2023-01-26T13:19:35.370Z,21.33
2023-01-26T13:22:02.686Z,23.92
2023-01-26T13:24:29.522Z,28.90
2023-01-26T13:27:00.654Z,23.58
2023-01-26T13:29:27.588Z,22.27
2023-01-26T13:31:55.969Z,21.85
2023-01-26T13:34:29.434Z,24.38
2023-01-26T13:37:19.426Z,25.52
2023-01-26T13:39:55.195Z,20.00
2023-01-26T13:42:38.428Z,23.15
2023-01-26T13:45:22.301Z,20.83
2023-01-26T13:47:50.714Z,21.85
2023-01-26T13:50:33.836Z,22.83
2023-01-26T13:53:01.094Z,22.63
2023-01-26T13:55:31.141Z,22.25
2023-01-26T13:58:15.991Z,23.08
2023-01-26T14:00:43.370Z,24.23
2023-01-26T14:03:24.758Z,22.85
2023-01-26T14:06:00.599Z,23.70
2023-01-26T14:08:27.871Z,21.67
2023-01-26T14:10:55.660Z,24.42
2023-01-26T14:13:38.964Z,22.55
2023-01-26T14:16:07.140Z,24.20
2023-01-26T14:18:34.297Z,24.00
2023-01-26T14:21:05.141Z,22.95
2023-01-26T14:23:36.977Z,25.30
2023-01-26T14:26:19.602Z,26.02
2023-01-26T14:28:47.141Z,23.25
2023-01-26T14:31:23.536Z,22.33
2023-01-26T14:33:55.988Z,24.00
2023-01-26T14:36:28.905Z,23.88
2023-01-26T14:38:56.548Z,25.50
2023-01-26T14:41:27.033Z,25.17
2023-01-26T14:44:00.284Z,26.27
2023-01-26T14:46:50.574Z,24.88
2023-01-26T14:49:46.140Z,23.45
2023-01-26T14:52:32.225Z,27.00
2023-01-26T14:55:06.437Z,30.70
2023-01-26T14:57:33.581Z,25.70
2023-01-26T15:00:02.486Z,27.27
2023-01-26T15:02:37.435Z,28.23
2023-01-26T15:05:16.726Z,25.42
2023-01-26T15:08:01.162Z,24.80
2023-01-26T15:10:35.987Z,27.67
2023-01-26T15:13:24.137Z,24.83
2023-01-26T15:16:06.252Z,29.45
2023-01-26T15:18:34.608Z,28.15
2023-01-26T15:21:22.271Z,28.73
2023-01-26T15:23:54.795Z,29.33
2023-01-26T15:26:36.004Z,29.85
2023-01-26T15:29:17.998Z,25.60
2023-01-26T15:31:51.129Z,26.38
2023-01-26T15:34:47.651Z,27.33
2023-01-26T15:37:32.158Z,27.38
2023-01-26T15:39:59.181Z,28.73
2023-01-26T15:42:31.625Z,25.95
2023-01-26T15:44:58.598Z,25.90
2023-01-26T15:47:32.645Z,30.23
2023-01-26T15:49:59.625Z,27.42
2023-01-26T15:52:30.456Z,23.17
2023-01-26T15:54:57.367Z,25.42
2023-01-26T15:57:24.239Z,25.77
2023-01-26T15:59:53.536Z,28.85
2023-01-26T16:02:21.293Z,25.67
2023-01-26T16:04:48.328Z,29.48
2023-01-26T16:07:18.013Z,25.65
2023-01-26T16:09:45.132Z,32.35
2023-01-26T16:12:32.726Z,27.05
2023-01-26T16:15:00.027Z,30.02
2023-01-26T16:17:27.229Z,28.15
2023-01-26T16:19:56.708Z,33.15
2023-01-26T16:22:23.597Z,30.27
2023-01-26T16:24:50.456Z,30.40
2023-01-26T16:27:17.327Z,29.80
2023-01-26T16:29:44.237Z,30.00
2023-01-26T16:32:37.245Z,28.67
2023-01-26T16:35:11.679Z,35.92
2023-01-26T16:37:41.175Z,31.38
2023-01-26T16:40:11.715Z,27.67
2023-01-26T16:42:43.253Z,31.40
2023-01-26T16:45:19.572Z,31.63
2023-01-26T16:47:50.016Z,30.05
2023-01-26T16:50:19.464Z,34.03
2023-01-26T16:52:49.204Z,33.63
2023-01-26T16:55:16.678Z,24.77
2023-01-26T16:57:46.045Z,23.33
2023-01-26T17:00:18.771Z,27.45
2023-01-26T17:05:19.951Z,26.95
2023-01-26T17:07:47.504Z,24.30
2023-01-26T17:10:16.707Z,25.52
2023-01-26T17:12:44.642Z,21.23
2023-01-26T17:15:12.584Z,22.27
2023-01-26T17:17:39.846Z,19.70
2023-01-26T17:20:18.394Z,21.17
2023-01-26T17:22:46.407Z,18.38
2023-01-26T17:25:16.547Z,18.13
2023-01-26T17:27:44.847Z,20.02
2023-01-26T17:30:12.201Z,20.33
2023-01-26T17:32:39.006Z,18.30
2023-01-26T17:35:06.145Z,20.52
2023-01-26T17:37:35.731Z,18.65
2023-01-26T17:40:02.566Z,17.17
2023-01-26T17:42:30.142Z,19.20
2023-01-26T17:44:57.928Z,18.75
2023-01-26T17:47:24.739Z,21.17
2023-01-26T17:49:51.619Z,20.52
2023-01-26T17:52:18.605Z,18.48
2023-01-26T17:54:45.698Z,19.38
2023-01-26T17:57:14.091Z,17.23
2023-01-26T17:59:41.086Z,16.98
2023-01-26T18:02:09.664Z,17.65
2023-01-26T18:04:36.591Z,20.92
2023-01-26T18:07:04.172Z,14.43
2023-01-26T18:09:31.322Z,17.67
2023-01-26T18:11:58.170Z,15.20
2023-01-26T18:14:25.108Z,21.00
2023-01-26T18:16:52.060Z,17.30
2023-01-26T18:19:19.060Z,17.75
2023-01-26T18:21:46.095Z,17.35
2023-01-26T18:24:12.895Z,15.05
2023-01-26T18:26:40.023Z,15.85
2023-01-26T18:29:07.395Z,11.07
2023-01-26T18:31:40.792Z,14.60
2023-01-26T18:34:08.273Z,12.57
2023-01-26T18:36:37.568Z,14.40
2023-01-26T18:39:08.303Z,15.43
2023-01-26T18:41:35.383Z,14.15
2023-01-26T18:44:03.830Z,14.23
2023-01-26T18:46:31.291Z,18.10
2023-01-26T18:49:02.956Z,16.02
2023-01-26T18:51:35.667Z,21.02
2023-01-26T18:54:04.064Z,20.08
2023-01-26T18:56:31.500Z,19.52
2023-01-26T18:59:00.989Z,24.38
2023-01-26T19:01:27.872Z,21.58
2023-01-26T19:03:55.466Z,22.08
2023-01-26T19:06:24.161Z,21.85
2023-01-26T19:09:00.277Z,23.05
2023-01-26T19:11:32.353Z,23.90
2023-01-26T19:14:00.566Z,24.80
2023-01-26T19:16:30.730Z,20.92
2023-01-26T19:18:58.032Z,22.85
2023-01-26T19:21:27.529Z,21.95
2023-01-26T19:23:58.755Z,22.77
2023-01-26T19:26:29.343Z,21.08
2023-01-26T19:28:56.206Z,22.13
2023-01-26T19:31:24.153Z,25.67
2023-01-26T19:33:56.647Z,26.25
2023-01-26T19:36:24.323Z,20.15
2023-01-26T19:38:51.489Z,21.52
2023-01-26T19:41:19.949Z,18.83
2023-01-26T19:43:46.843Z,20.40
2023-01-26T19:46:14.931Z,18.95
2023-01-26T19:48:41.873Z,22.88
2023-01-26T19:51:14.815Z,23.58
2023-01-26T19:53:47.648Z,22.95
2023-01-26T19:56:26.765Z,23.25
2023-01-26T19:59:01.758Z,22.55
2023-01-26T20:01:30.626Z,24.13
2023-01-26T20:04:00.407Z,24.58
2023-01-26T20:06:30.518Z,24.20
2023-01-26T20:08:57.667Z,23.98
2023-01-26T20:11:26.752Z,26.45
2023-01-26T20:14:02.027Z,25.02
2023-01-26T20:16:35.240Z,26.05
2023-01-26T20:19:03.029Z,23.48
2023-01-26T20:21:37.084Z,21.65
2023-01-26T20:24:05.955Z,27.70
2023-01-26T20:26:37.226Z,26.20
2023-01-26T20:29:05.407Z,20.80
2023-01-26T20:31:33.096Z,28.40
2023-01-26T20:34:01.654Z,21.33
2023-01-26T20:36:29.399Z,25.52
2023-01-26T20:39:07.066Z,22.40
2023-01-26T20:41:34.024Z,24.52
2023-01-26T20:44:05.964Z,23.75
2023-01-26T20:46:38.195Z,17.85
2023-01-26T20:49:08.751Z,23.75
2023-01-26T20:51:38.257Z,23.10
2023-01-26T20:54:06.746Z,20.30
2023-01-26T20:56:33.996Z,28.05
2023-01-26T20:59:01.033Z,24.73
2023-01-26T21:01:28.140Z,25.05
2023-01-26T21:03:57.458Z,24.27
2023-01-26T21:06:24.687Z,21.65
2023-01-26T21:08:54.870Z,25.45
2023-01-26T21:11:24.512Z,22.65
2023-01-26T21:13:52.196Z,24.02
2023-01-26T21:16:19.489Z,24.48
2023-01-26T21:18:46.578Z,24.42
2023-01-26T21:21:17.773Z,22.13
2023-01-26T21:23:45.500Z,23.77
2023-01-26T21:26:14.684Z,25.83
2023-01-26T21:28:44.597Z,26.08
2023-01-26T21:31:15.610Z,25.88
2023-01-26T21:33:45.393Z,24.73
2023-01-26T21:36:14.900Z,22.50
2023-01-26T21:38:48.059Z,23.48
2023-01-26T21:41:38.425Z,24.27
2023-01-26T21:44:08.005Z,23.20
2023-01-26T21:46:35.442Z,23.85
2023-01-26T21:49:02.905Z,24.38
2023-01-26T21:51:48.685Z,25.88
2023-01-26T21:54:15.987Z,26.25
2023-01-26T21:56:43.058Z,25.75
2023-01-26T21:59:14.554Z,28.23
2023-01-26T22:01:44.895Z,26.55
2023-01-26T22:04:14.741Z,25.15
2023-01-26T22:06:41.712Z,24.58
2023-01-26T22:09:10.605Z,26.50
2023-01-26T22:11:39.686Z,24.67
2023-01-26T22:14:07.812Z,28.45
2023-01-26T22:16:34.729Z,25.15
2023-01-26T22:19:01.567Z,26.17
2023-01-26T22:21:28.468Z,26.05
2023-01-26T22:23:55.440Z,29.75
2023-01-26T22:26:23.178Z,24.33
2023-01-26T22:28:59.720Z,26.70
2023-01-26T22:31:28.970Z,27.08
2023-01-26T22:33:58.368Z,32.45
2023-01-26T22:36:27.751Z,31.52
2023-01-26T22:38:55.620Z,37.08
2023-01-26T22:41:26.128Z,29.58
2023-01-26T22:43:55.621Z,33.28
2023-01-26T22:46:24.227Z,28.17
2023-01-26T22:48:51.614Z,36.90
2023-01-26T22:51:21.711Z,31.90
2023-01-26T22:53:50.295Z,32.53
2023-01-26T22:56:17.811Z,32.08
2023-01-26T22:58:58.140Z,30.60
2023-01-26T23:01:31.359Z,26.05
2023-01-26T23:03:59.013Z,25.52
2023-01-26T23:06:26.021Z,25.52
2023-01-26T23:08:53.026Z,27.08
2023-01-26T23:11:25.447Z,27.42
2023-01-26T23:13:54.076Z,26.40
2023-01-26T23:16:22.909Z,26.42
2023-01-26T23:18:50.095Z,27.13
2023-01-26T23:21:17.153Z,28.95
2023-01-26T23:23:43.971Z,27.13
2023-01-26T23:26:11.304Z,30.00
2023-01-26T23:28:41.023Z,26.95
2023-01-26T23:31:08.826Z,28.73
2023-01-26T23:33:36.884Z,32.13
2023-01-26T23:36:04.817Z,29.15
2023-01-26T23:38:32.604Z,30.15
2023-01-26T23:41:00.593Z,28.58
2023-01-26T23:43:28.086Z,26.48
2023-01-26T23:45:56.623Z,29.40
2023-01-26T23:48:24.546Z,25.02
2023-01-26T23:51:04.055Z,29.95
2023-01-26T23:53:31.773Z,30.23
2023-01-26T23:56:16.018Z,33.00
2023-01-26T23:58:43.185Z,29.85
